createdAt,value
2019-01-29T00:00:29.184Z,0
2019-01-29T00:01:28.943Z,0
2019-01-29T00:02:28.961Z,0
2019-01-29T00:03:29.506Z,0
2019-01-29T00:04:28.837Z,0
2019-01-29T00:05:28.750Z,0
2019-01-29T00:06:29.539Z,0
2019-01-29T00:07:29.038Z,0
2019-01-29T00:08:29.314Z,0
2019-01-29T00:09:29.071Z,0
2019-01-29T00:10:29.342Z,0
2019-01-29T00:11:29.100Z,0
2019-01-29T00:12:28.858Z,0
2019-01-29T00:13:28.871Z,0
2019-01-29T00:14:28.895Z,0
2019-01-29T00:15:29.423Z,0
2019-01-29T00:16:28.922Z,0
2019-01-29T00:17:29.194Z,0
2019-01-29T00:18:29.223Z,0
2019-01-29T00:19:29.228Z,0
2019-01-29T00:20:29.240Z,0
2019-01-29T00:21:29.012Z,0
2019-01-29T00:22:37.796Z,0
2019-01-29T00:23:29.809Z,0
2019-01-29T00:24:29.823Z,0
2019-01-29T00:25:29.057Z,0
2019-01-29T00:26:29.591Z,0
2019-01-29T00:27:29.353Z,0
2019-01-29T00:28:29.880Z,0
2019-01-29T00:29:29.638Z,0
2019-01-29T00:30:31.660Z,0
2019-01-29T00:31:29.672Z,0
2019-01-29T00:32:29.434Z,0
2019-01-29T00:33:29.447Z,0
2019-01-29T00:34:29.724Z,0
2019-01-29T00:35:29.489Z,0
2019-01-29T00:36:29.759Z,0
2019-01-29T00:37:29.765Z,0
2019-01-29T00:38:29.263Z,0
2019-01-29T00:39:29.537Z,0
2019-01-29T00:40:29.299Z,0
2019-01-29T00:41:29.313Z,0
2019-01-29T00:42:29.605Z,0
2019-01-29T00:43:29.344Z,0
2019-01-29T00:44:29.364Z,0
2019-01-29T00:45:29.898Z,0
2019-01-29T00:46:29.916Z,0
2019-01-29T00:47:30.178Z,0
2019-01-29T00:48:29.680Z,0
2019-01-29T00:49:29.699Z,0
2019-01-29T00:50:29.712Z,0
2019-01-29T00:51:29.726Z,0
2019-01-29T00:52:30.001Z,0
2019-01-29T00:53:29.499Z,0
2019-01-29T00:54:29.794Z,0
2019-01-29T00:55:30.050Z,0
2019-01-29T00:56:29.546Z,0
2019-01-29T00:57:29.832Z,0
2019-01-29T00:58:29.583Z,0
2019-01-29T00:59:30.113Z,0
2019-01-29T01:00:29.614Z,0
2019-01-29T01:01:29.625Z,0
2019-01-29T01:02:30.164Z,0
2019-01-29T01:03:29.918Z,0
2019-01-29T01:04:30.454Z,0
2019-01-29T01:05:30.209Z,0
2019-01-29T01:06:29.976Z,0
2019-01-29T01:07:29.729Z,0
2019-01-29T01:08:29.998Z,0
2019-01-29T01:09:30.045Z,0
2019-01-29T01:10:30.028Z,0
2019-01-29T01:11:30.302Z,0
2019-01-29T01:12:30.318Z,0
2019-01-29T01:13:30.112Z,0
2019-01-29T01:14:30.346Z,0
2019-01-29T01:15:30.106Z,0
2019-01-29T01:16:30.116Z,0
2019-01-29T01:17:29.877Z,0
2019-01-29T01:18:30.152Z,0
2019-01-29T01:19:30.426Z,0
2019-01-29T01:20:30.186Z,0
2019-01-29T01:21:30.462Z,0
2019-01-29T01:22:30.213Z,0
2019-01-29T01:23:30.240Z,0
2019-01-29T01:24:29.990Z,0
2019-01-29T01:25:30.266Z,0
2019-01-29T01:26:30.541Z,0
2019-01-29T01:27:30.553Z,0
2019-01-29T01:28:30.057Z,0
2019-01-29T01:29:30.591Z,0
2019-01-29T01:30:30.352Z,0
2019-01-29T01:31:30.617Z,0
2019-01-29T01:32:30.117Z,0
2019-01-29T01:33:30.140Z,0
2019-01-29T01:34:30.662Z,0
2019-01-29T01:35:30.164Z,0
2019-01-29T01:36:30.436Z,0
2019-01-29T01:37:30.197Z,0
2019-01-29T01:38:30.465Z,0
2019-01-29T01:39:30.487Z,0
2019-01-29T01:40:30.759Z,0
2019-01-29T01:41:30.775Z,0
2019-01-29T01:42:30.791Z,0
2019-01-29T01:43:30.550Z,0
2019-01-29T01:44:30.304Z,0
2019-01-29T01:45:31.143Z,0
2019-01-29T01:46:30.333Z,0
2019-01-29T01:47:30.609Z,0
2019-01-29T01:48:30.367Z,0
2019-01-29T01:49:30.641Z,0
2019-01-29T01:50:30.653Z,0
2019-01-29T01:51:30.411Z,0
2019-01-29T01:52:30.686Z,0
2019-01-29T01:53:30.701Z,0
2019-01-29T01:54:30.980Z,0
2019-01-29T01:55:30.737Z,0
2019-01-29T01:56:31.270Z,0
2019-01-29T01:57:30.774Z,0
2019-01-29T01:58:30.785Z,0
2019-01-29T01:59:30.821Z,0
2019-01-29T02:00:31.331Z,0
2019-01-29T02:01:30.572Z,0
2019-01-29T02:02:31.370Z,0
2019-01-29T02:03:31.119Z,0
2019-01-29T02:04:30.878Z,0
2019-01-29T02:05:30.632Z,0
2019-01-29T02:06:30.907Z,0
2019-01-29T02:07:30.921Z,0
2019-01-29T02:08:30.944Z,0
2019-01-29T02:09:31.000Z,0
2019-01-29T02:10:30.974Z,0
2019-01-29T02:11:30.984Z,0
2019-01-29T02:12:32.095Z,0
2019-01-29T02:13:30.760Z,0
2019-01-29T02:14:31.551Z,0
2019-01-29T02:15:31.320Z,0
2019-01-29T02:16:31.068Z,0
2019-01-29T02:17:30.824Z,0
2019-01-29T02:18:30.841Z,0
2019-01-29T02:19:31.367Z,0
2019-01-29T02:20:31.133Z,0
2019-01-29T02:21:31.144Z,0
2019-01-29T02:22:31.163Z,0
2019-01-29T02:23:31.171Z,0
2019-01-29T02:24:31.192Z,0
2019-01-29T02:25:31.464Z,0
2019-01-29T02:26:31.229Z,0
2019-01-29T02:27:31.495Z,0
2019-01-29T02:28:30.995Z,0
2019-01-29T02:29:31.529Z,0
2019-01-29T02:30:31.556Z,0
2019-01-29T02:31:31.048Z,0
2019-01-29T02:32:31.320Z,0
2019-01-29T02:33:32.263Z,0
2019-01-29T02:34:31.629Z,0
2019-01-29T02:35:31.367Z,0
2019-01-29T02:36:31.642Z,0
2019-01-29T02:37:31.418Z,0
2019-01-29T02:38:31.168Z,0
2019-01-29T02:39:31.693Z,0
2019-01-29T02:40:31.704Z,0
2019-01-29T02:41:31.457Z,0
2019-01-29T02:42:32.000Z,0
2019-01-29T02:43:31.492Z,0
2019-01-29T02:44:31.248Z,0
2019-01-29T02:45:31.779Z,0
2019-01-29T02:46:31.544Z,0
2019-01-29T02:47:31.379Z,0
2019-01-29T02:48:31.609Z,0
2019-01-29T02:49:31.585Z,0
2019-01-29T02:50:31.593Z,0
2019-01-29T02:51:31.616Z,0
2019-01-29T02:52:31.635Z,0
2019-01-29T02:53:31.916Z,0
2019-01-29T02:54:32.175Z,0
2019-01-29T02:55:32.194Z,0
2019-01-29T02:56:31.460Z,0
2019-01-29T02:57:31.719Z,0
2019-01-29T02:58:31.983Z,0
2019-01-29T02:59:31.769Z,0
2019-01-29T03:00:32.018Z,0
2019-01-29T03:01:32.028Z,0
2019-01-29T03:02:31.529Z,0
2019-01-29T03:03:31.809Z,0
2019-01-29T03:04:32.080Z,0
2019-01-29T03:05:32.091Z,0
2019-01-29T03:06:31.853Z,0
2019-01-29T03:07:31.606Z,0
2019-01-29T03:08:31.884Z,0
2019-01-29T03:09:31.893Z,0
2019-01-29T03:10:31.918Z,0
2019-01-29T03:11:31.669Z,0
2019-01-29T03:12:32.196Z,0
2019-01-29T03:13:31.958Z,0
2019-01-29T03:14:32.505Z,0
2019-01-29T03:15:32.514Z,0
2019-01-29T03:16:32.001Z,0
2019-01-29T03:17:31.756Z,0
2019-01-29T03:18:32.073Z,0
2019-01-29T03:19:31.804Z,0
2019-01-29T03:20:31.802Z,0
2019-01-29T03:21:34.135Z,0
2019-01-29T03:22:32.114Z,0
2019-01-29T03:23:34.848Z,0
2019-01-29T03:24:32.127Z,0
2019-01-29T03:25:32.149Z,0
2019-01-29T03:26:31.905Z,0
2019-01-29T03:27:32.434Z,0
2019-01-29T03:28:32.193Z,0
2019-01-29T03:29:32.013Z,0
2019-01-29T03:30:32.496Z,0
2019-01-29T03:31:32.263Z,0
2019-01-29T03:32:32.274Z,0
2019-01-29T03:33:32.568Z,0
2019-01-29T03:34:32.157Z,0
2019-01-29T03:35:32.307Z,0
2019-01-29T03:36:32.616Z,0
2019-01-29T03:37:32.331Z,0
2019-01-29T03:38:32.605Z,0
2019-01-29T03:39:32.360Z,0
2019-01-29T03:40:32.396Z,0
2019-01-29T03:41:32.398Z,0
2019-01-29T03:42:32.679Z,0
2019-01-29T03:43:32.173Z,0
2019-01-29T03:44:32.444Z,0
2019-01-29T03:45:32.460Z,0
2019-01-29T03:46:32.740Z,0
2019-01-29T03:47:32.745Z,0
2019-01-29T03:48:32.776Z,0
2019-01-29T03:49:32.261Z,0
2019-01-29T03:50:33.827Z,0
2019-01-29T03:51:32.806Z,0
2019-01-29T03:52:32.308Z,0
2019-01-29T03:53:42.472Z,0
2019-01-29T03:54:32.342Z,0
2019-01-29T03:55:33.135Z,0
2019-01-29T03:56:32.632Z,0
2019-01-29T03:57:32.658Z,0
2019-01-29T03:58:32.927Z,0
2019-01-29T03:59:32.930Z,0
2019-01-29T04:00:32.699Z,0
2019-01-29T04:01:32.705Z,0
2019-01-29T04:02:32.466Z,0
2019-01-29T04:03:32.746Z,0
2019-01-29T04:04:33.302Z,0
2019-01-29T04:05:32.777Z,0
2019-01-29T04:06:32.787Z,0
2019-01-29T04:07:32.806Z,0
2019-01-29T04:08:33.077Z,0
2019-01-29T04:09:32.843Z,0
2019-01-29T04:10:32.850Z,0
2019-01-29T04:11:32.602Z,0
2019-01-29T04:12:33.139Z,0
2019-01-29T04:13:33.149Z,0
2019-01-29T04:14:32.653Z,0
2019-01-29T04:15:32.930Z,0
2019-01-29T04:16:32.941Z,0
2019-01-29T04:17:33.227Z,0
2019-01-29T04:18:32.987Z,0
2019-01-29T04:19:32.992Z,0
2019-01-29T04:20:33.520Z,0
2019-01-29T04:21:33.023Z,0
2019-01-29T04:22:33.038Z,0
2019-01-29T04:23:33.568Z,0
2019-01-29T04:24:33.326Z,0
2019-01-29T04:25:33.090Z,0
2019-01-29T04:26:33.100Z,0
2019-01-29T04:27:33.115Z,0
2019-01-29T04:28:33.388Z,0
2019-01-29T04:29:33.149Z,0
2019-01-29T04:30:33.173Z,0
2019-01-29T04:31:32.919Z,0
2019-01-29T04:32:33.200Z,0
2019-01-29T04:33:33.219Z,0
2019-01-29T04:34:33.358Z,0
2019-01-29T04:35:33.497Z,0
2019-01-29T04:36:32.998Z,0
2019-01-29T04:37:33.542Z,0
2019-01-29T04:38:33.552Z,0
2019-01-29T04:39:33.304Z,0
2019-01-29T04:40:33.584Z,0
2019-01-29T04:41:33.097Z,0
2019-01-29T04:42:33.617Z,0
2019-01-29T04:43:33.629Z,0
2019-01-29T04:44:33.640Z,0
2019-01-29T04:45:33.206Z,0
2019-01-29T04:46:33.679Z,0
2019-01-29T04:47:33.707Z,0
2019-01-29T04:48:33.710Z,0
2019-01-29T04:49:33.201Z,0
2019-01-29T04:50:33.754Z,0
2019-01-29T04:51:33.493Z,0
2019-01-29T04:52:33.782Z,0
2019-01-29T04:53:33.283Z,0
2019-01-29T04:54:33.601Z,0
2019-01-29T04:55:33.828Z,0
2019-01-29T04:56:33.566Z,0
2019-01-29T04:57:33.849Z,0
2019-01-29T04:58:33.604Z,0
2019-01-29T04:59:33.633Z,0
2019-01-29T05:00:33.908Z,0
2019-01-29T05:01:33.652Z,0
2019-01-29T05:02:33.666Z,0
2019-01-29T05:03:33.974Z,0
2019-01-29T05:04:33.768Z,0
2019-01-29T05:05:33.453Z,0
2019-01-29T05:06:33.991Z,0
2019-01-29T05:07:34.002Z,0
2019-01-29T05:08:34.282Z,0
2019-01-29T05:09:33.781Z,0
2019-01-29T05:10:33.537Z,0
2019-01-29T05:11:34.097Z,0
2019-01-29T05:12:33.823Z,0
2019-01-29T05:13:34.101Z,0
2019-01-29T05:14:33.597Z,0
2019-01-29T05:15:33.874Z,0
2019-01-29T05:16:33.625Z,0
2019-01-29T05:17:33.638Z,0
2019-01-29T05:18:34.506Z,0
2019-01-29T05:19:33.929Z,0
2019-01-29T05:20:33.688Z,0
2019-01-29T05:21:33.719Z,0
2019-01-29T05:22:33.988Z,0
2019-01-29T05:23:33.993Z,0
2019-01-29T05:24:33.764Z,0
2019-01-29T05:25:34.043Z,0
2019-01-29T05:26:34.298Z,0
2019-01-29T05:27:34.329Z,0
2019-01-29T05:28:34.075Z,0
2019-01-29T05:29:33.841Z,0
2019-01-29T05:30:34.617Z,0
2019-01-29T05:31:34.120Z,0
2019-01-29T05:32:33.875Z,0
2019-01-29T05:33:34.159Z,0
2019-01-29T05:34:34.167Z,0
2019-01-29T05:35:34.187Z,0
2019-01-29T05:36:34.457Z,0
2019-01-29T05:37:34.485Z,0
2019-01-29T05:38:34.490Z,0
2019-01-29T05:39:34.250Z,0
2019-01-29T05:40:34.521Z,0
2019-01-29T05:41:34.796Z,0
2019-01-29T05:42:34.292Z,0
2019-01-29T05:43:34.326Z,0
2019-01-29T05:44:34.584Z,0
2019-01-29T05:45:34.600Z,0
2019-01-29T05:46:34.881Z,0
2019-01-29T05:47:34.112Z,0
2019-01-29T05:48:34.644Z,0
2019-01-29T05:49:34.400Z,0
2019-01-29T05:50:34.685Z,0
2019-01-29T05:51:34.438Z,0
2019-01-29T05:52:34.451Z,0
2019-01-29T05:53:34.730Z,0
2019-01-29T05:54:34.488Z,0
2019-01-29T05:55:34.765Z,0
2019-01-29T05:56:34.527Z,0
2019-01-29T05:57:34.271Z,0
2019-01-29T05:58:35.063Z,0
2019-01-29T05:59:34.559Z,0
2019-01-29T06:00:35.177Z,0
2019-01-29T06:01:34.589Z,0
2019-01-29T06:02:34.611Z,0
2019-01-29T06:03:34.882Z,0
2019-01-29T06:04:34.636Z,0
2019-01-29T06:05:34.910Z,0
2019-01-29T06:06:34.936Z,0
2019-01-29T06:07:34.690Z,0
2019-01-29T06:08:34.704Z,0
2019-01-29T06:09:34.716Z,0
2019-01-29T06:10:34.736Z,0
2019-01-29T06:11:34.771Z,0
2019-01-29T06:12:34.767Z,0
2019-01-29T06:13:34.781Z,0
2019-01-29T06:14:35.055Z,0
2019-01-29T06:15:34.821Z,0
2019-01-29T06:16:34.571Z,0
2019-01-29T06:17:34.848Z,0
2019-01-29T06:18:34.863Z,0
2019-01-29T06:19:34.875Z,0
2019-01-29T06:20:34.914Z,0
2019-01-29T06:21:34.905Z,0
2019-01-29T06:22:35.206Z,0
2019-01-29T06:23:34.938Z,0
2019-01-29T06:24:34.971Z,0
2019-01-29T06:25:34.998Z,0
2019-01-29T06:26:35.255Z,0
2019-01-29T06:27:35.257Z,0
2019-01-29T06:28:35.545Z,0
2019-01-29T06:29:35.032Z,0
2019-01-29T06:30:35.052Z,0
2019-01-29T06:31:34.814Z,0
2019-01-29T06:32:35.148Z,0
2019-01-29T06:33:35.611Z,0
2019-01-29T06:34:35.391Z,0
2019-01-29T06:35:35.396Z,0
2019-01-29T06:36:35.403Z,0
2019-01-29T06:37:35.416Z,0
2019-01-29T06:38:35.172Z,0
2019-01-29T06:39:35.191Z,0
2019-01-29T06:40:35.724Z,0
2019-01-29T06:41:35.219Z,0
2019-01-29T06:42:35.490Z,0
2019-01-29T06:43:34.996Z,0
2019-01-29T06:44:35.268Z,0
2019-01-29T06:45:35.036Z,0
2019-01-29T06:46:35.038Z,0
2019-01-29T06:47:35.316Z,0
2019-01-29T06:48:35.329Z,0
2019-01-29T06:49:35.605Z,0
2019-01-29T06:50:35.099Z,4
2019-01-29T06:51:35.378Z,0
2019-01-29T06:52:35.597Z,4
2019-01-29T06:53:35.149Z,4
2019-01-29T06:54:40.905Z,4
2019-01-29T06:55:35.757Z,4
2019-01-29T06:56:35.467Z,4
2019-01-29T06:57:35.725Z,4
2019-01-29T06:58:35.503Z,4
2019-01-29T06:59:35.514Z,4
2019-01-29T07:00:35.527Z,8
2019-01-29T07:01:35.278Z,4
2019-01-29T07:02:35.551Z,8
2019-01-29T07:03:35.821Z,8
2019-01-29T07:04:35.590Z,12
2019-01-29T07:05:35.642Z,12
2019-01-29T07:06:35.353Z,16
2019-01-29T07:07:35.627Z,16
2019-01-29T07:08:35.387Z,20
2019-01-29T07:09:35.660Z,20
2019-01-29T07:10:35.938Z,28
2019-01-29T07:11:35.458Z,28
2019-01-29T07:12:35.705Z,28
2019-01-29T07:13:35.719Z,28
2019-01-29T07:14:35.495Z,28
2019-01-29T07:15:35.757Z,36
2019-01-29T07:16:35.771Z,36
2019-01-29T07:17:35.783Z,40
2019-01-29T07:18:35.804Z,44
2019-01-29T07:19:35.827Z,44
2019-01-29T07:20:35.574Z,48
2019-01-29T07:21:35.590Z,56
2019-01-29T07:22:36.379Z,56
2019-01-29T07:23:35.873Z,60
2019-01-29T07:24:42.567Z,64
2019-01-29T07:25:36.429Z,68
2019-01-29T07:26:35.667Z,68
2019-01-29T07:27:35.941Z,64
2019-01-29T07:28:36.221Z,64
2019-01-29T07:29:35.970Z,72
2019-01-29T07:30:36.506Z,80
2019-01-29T07:31:35.760Z,84
2019-01-29T07:32:36.022Z,84
2019-01-29T07:33:36.318Z,92
2019-01-29T07:34:36.051Z,88
2019-01-29T07:35:36.068Z,104
2019-01-29T07:36:36.086Z,104
2019-01-29T07:37:36.098Z,104
2019-01-29T07:38:35.852Z,116
2019-01-29T07:39:36.389Z,124
2019-01-29T07:40:35.895Z,128
2019-01-29T07:41:36.425Z,140
2019-01-29T07:42:36.431Z,152
2019-01-29T07:43:36.447Z,164
2019-01-29T07:44:36.466Z,156
2019-01-29T07:45:36.217Z,148
2019-01-29T07:46:35.990Z,144
2019-01-29T07:47:35.993Z,160
2019-01-29T07:48:36.272Z,172
2019-01-29T07:49:36.026Z,172
2019-01-29T07:50:36.311Z,168
2019-01-29T07:51:36.083Z,228
2019-01-29T07:52:36.647Z,248
2019-01-29T07:53:36.345Z,276
2019-01-29T07:54:39.877Z,268
2019-01-29T07:55:36.636Z,332
2019-01-29T07:56:36.137Z,332
2019-01-29T07:57:36.412Z,404
2019-01-29T07:58:36.683Z,420
2019-01-29T07:59:40.499Z,424
2019-01-29T08:00:36.728Z,380
2019-01-29T08:01:36.733Z,384
2019-01-29T08:02:36.235Z,388
2019-01-29T08:03:40.580Z,332
2019-01-29T08:04:36.535Z,384
2019-01-29T08:05:36.542Z,360
2019-01-29T08:06:36.825Z,340
2019-01-29T08:07:36.566Z,292
2019-01-29T08:08:36.598Z,296
2019-01-29T08:09:36.605Z,328
2019-01-29T08:10:36.886Z,328
2019-01-29T08:11:36.633Z,324
2019-01-29T08:12:36.667Z,368
2019-01-29T08:13:36.659Z,336
2019-01-29T08:14:36.939Z,344
2019-01-29T08:15:36.720Z,376
2019-01-29T08:16:36.732Z,328
2019-01-29T08:17:37.242Z,272
2019-01-29T08:18:37.016Z,332
2019-01-29T08:19:37.018Z,336
2019-01-29T08:20:36.798Z,368
2019-01-29T08:21:36.533Z,332
2019-01-29T08:22:36.811Z,352
2019-01-29T08:23:36.567Z,364
2019-01-29T08:24:36.578Z,376
2019-01-29T08:25:36.595Z,340
2019-01-29T08:26:36.866Z,320
2019-01-29T08:27:36.885Z,312
2019-01-29T08:28:36.902Z,348
2019-01-29T08:29:37.504Z,376
2019-01-29T08:30:36.942Z,412
2019-01-29T08:31:36.947Z,416
2019-01-29T08:32:37.240Z,456
2019-01-29T08:33:36.975Z,472
2019-01-29T08:34:37.011Z,436
2019-01-29T08:35:37.269Z,488
2019-01-29T08:36:37.296Z,564
2019-01-29T08:37:36.781Z,524
2019-01-29T08:38:37.333Z,456
2019-01-29T08:39:36.819Z,452
2019-01-29T08:40:37.347Z,440
2019-01-29T08:41:37.125Z,444
2019-01-29T08:42:37.639Z,476
2019-01-29T08:43:37.134Z,548
2019-01-29T08:44:37.150Z,500
2019-01-29T08:45:37.444Z,464
2019-01-29T08:46:37.709Z,480
2019-01-29T08:47:37.205Z,452
2019-01-29T08:48:37.513Z,500
2019-01-29T08:49:37.232Z,524
2019-01-29T08:50:37.256Z,492
2019-01-29T08:51:37.263Z,496
2019-01-29T08:52:37.548Z,508
2019-01-29T08:53:37.240Z,568
2019-01-29T08:54:37.841Z,504
2019-01-29T08:55:37.395Z,544
2019-01-29T08:56:37.102Z,576
2019-01-29T08:57:37.357Z,520
2019-01-29T08:58:37.384Z,600
2019-01-29T08:59:37.390Z,540
2019-01-29T09:00:37.411Z,492
2019-01-29T09:01:37.165Z,440
2019-01-29T09:02:37.707Z,476
2019-01-29T09:03:37.192Z,452
2019-01-29T09:04:37.764Z,444
2019-01-29T09:05:37.497Z,480
2019-01-29T09:06:37.778Z,472
2019-01-29T09:07:37.254Z,432
2019-01-29T09:08:37.288Z,344
2019-01-29T09:09:37.811Z,368
2019-01-29T09:10:37.850Z,380
2019-01-29T09:11:38.107Z,364
2019-01-29T09:12:37.604Z,432
2019-01-29T09:13:37.349Z,416
2019-01-29T09:14:37.636Z,524
2019-01-29T09:15:37.899Z,768
2019-01-29T09:16:37.978Z,788
2019-01-29T09:17:37.674Z,764
2019-01-29T09:18:37.702Z,728
2019-01-29T09:19:37.707Z,648
2019-01-29T09:20:37.993Z,616
2019-01-29T09:21:37.478Z,668
2019-01-29T09:22:37.763Z,656
2019-01-29T09:23:38.023Z,656
2019-01-29T09:24:37.792Z,632
2019-01-29T09:25:37.547Z,616
2019-01-29T09:26:37.823Z,608
2019-01-29T09:27:37.833Z,632
2019-01-29T09:28:38.153Z,644
2019-01-29T09:29:37.607Z,672
2019-01-29T09:30:37.879Z,736
2019-01-29T09:31:37.895Z,896
2019-01-29T09:32:37.654Z,736
2019-01-29T09:33:37.928Z,804
2019-01-29T09:34:37.944Z,848
2019-01-29T09:35:37.962Z,924
2019-01-29T09:36:38.431Z,1104
2019-01-29T09:37:38.520Z,1152
2019-01-29T09:38:38.005Z,1072
2019-01-29T09:39:38.539Z,1020
2019-01-29T09:40:38.044Z,1048
2019-01-29T09:41:38.059Z,1104
2019-01-29T09:42:37.814Z,1076
2019-01-29T09:43:37.877Z,1120
2019-01-29T09:44:38.361Z,1048
2019-01-29T09:45:37.861Z,1004
2019-01-29T09:46:37.885Z,1040
2019-01-29T09:47:38.405Z,1036
2019-01-29T09:48:37.911Z,1028
2019-01-29T09:49:38.180Z,948
2019-01-29T09:50:38.463Z,1012
2019-01-29T09:51:38.215Z,1036
2019-01-29T09:52:38.231Z,1028
2019-01-29T09:53:37.990Z,988
2019-01-29T09:54:38.523Z,928
2019-01-29T09:55:38.277Z,932
2019-01-29T09:56:38.295Z,856
2019-01-29T09:57:38.830Z,752
2019-01-29T09:58:38.068Z,928
2019-01-29T09:59:38.599Z,1080
2019-01-29T10:00:38.621Z,1084
2019-01-29T10:01:38.381Z,1092
2019-01-29T10:02:38.389Z,1160
2019-01-29T10:03:38.677Z,1096
2019-01-29T10:04:38.423Z,1184
2019-01-29T10:05:38.449Z,1180
2019-01-29T10:06:38.457Z,1208
2019-01-29T10:07:38.728Z,1192
2019-01-29T10:08:38.498Z,1108
2019-01-29T10:09:38.239Z,1080
2019-01-29T10:10:38.262Z,1132
2019-01-29T10:11:38.541Z,1152
2019-01-29T10:12:38.556Z,1260
2019-01-29T10:13:38.305Z,1284
2019-01-29T10:14:38.839Z,1224
2019-01-29T10:15:38.600Z,1164
2019-01-29T10:16:38.624Z,1144
2019-01-29T10:17:38.371Z,1112
2019-01-29T10:18:38.386Z,1108
2019-01-29T10:19:40.225Z,1032
2019-01-29T10:20:38.939Z,1020
2019-01-29T10:21:38.694Z,1032
2019-01-29T10:22:38.709Z,992
2019-01-29T10:23:39.242Z,1164
2019-01-29T10:24:38.488Z,1192
2019-01-29T10:25:44.635Z,1296
2019-01-29T10:26:38.515Z,1376
2019-01-29T10:27:38.531Z,1224
2019-01-29T10:28:38.810Z,1452
2019-01-29T10:29:38.828Z,1344
2019-01-29T10:30:38.843Z,1328
2019-01-29T10:31:38.868Z,1492
2019-01-29T10:32:39.139Z,1608
2019-01-29T10:33:39.422Z,1524
2019-01-29T10:34:39.455Z,1512
2019-01-29T10:35:39.177Z,1368
2019-01-29T10:36:41.045Z,1316
2019-01-29T10:37:38.693Z,1348
2019-01-29T10:38:38.976Z,1528
2019-01-29T10:39:38.985Z,1672
2019-01-29T10:40:39.536Z,1984
2019-01-29T10:41:39.283Z,2220
2019-01-29T10:42:39.034Z,2112
2019-01-29T10:43:38.792Z,1920
2019-01-29T10:44:39.084Z,1924
2019-01-29T10:45:39.087Z,1892
2019-01-29T10:46:39.094Z,1656
2019-01-29T10:47:39.117Z,1208
2019-01-29T10:48:38.873Z,1420
2019-01-29T10:49:39.165Z,1296
2019-01-29T10:50:39.426Z,1272
2019-01-29T10:51:39.445Z,1168
2019-01-29T10:52:39.226Z,916
2019-01-29T10:53:39.475Z,828
2019-01-29T10:54:39.253Z,1056
2019-01-29T10:55:49.124Z,976
2019-01-29T10:56:39.537Z,992
2019-01-29T10:57:39.029Z,880
2019-01-29T10:58:39.297Z,808
2019-01-29T10:59:39.053Z,1000
2019-01-29T11:00:39.069Z,1008
2019-01-29T11:01:39.606Z,920
2019-01-29T11:02:39.359Z,876
2019-01-29T11:03:39.141Z,1008
2019-01-29T11:04:39.648Z,976
2019-01-29T11:05:39.949Z,916
2019-01-29T11:06:39.423Z,1068
2019-01-29T11:07:39.442Z,1424
2019-01-29T11:08:39.285Z,1756
2019-01-29T11:09:39.744Z,1864
2019-01-29T11:10:40.017Z,1752
2019-01-29T11:11:39.504Z,1808
2019-01-29T11:12:39.533Z,1852
2019-01-29T11:13:39.801Z,1796
2019-01-29T11:14:39.808Z,1900
2019-01-29T11:15:39.570Z,2104
2019-01-29T11:16:39.594Z,2076
2019-01-29T11:17:39.858Z,1964
2019-01-29T11:18:39.360Z,2088
2019-01-29T11:19:41.597Z,2472
2019-01-29T11:20:39.906Z,2380
2019-01-29T11:21:39.409Z,1944
2019-01-29T11:22:39.942Z,1844
2019-01-29T11:23:40.217Z,1832
2019-01-29T11:24:39.722Z,1712
2019-01-29T11:25:39.478Z,1660
2019-01-29T11:26:40.269Z,1724
2019-01-29T11:27:40.111Z,1812
2019-01-29T11:28:39.787Z,1684
2019-01-29T11:29:39.846Z,1676
2019-01-29T11:30:40.092Z,1692
2019-01-29T11:31:39.833Z,1628
2019-01-29T11:32:40.376Z,1508
2019-01-29T11:33:40.388Z,1508
2019-01-29T11:34:39.932Z,1484
2019-01-29T11:35:40.591Z,1448
2019-01-29T11:36:39.658Z,1408
2019-01-29T11:37:40.192Z,1384
2019-01-29T11:38:39.946Z,1356
2019-01-29T11:39:39.962Z,1352
2019-01-29T11:40:40.256Z,1412
2019-01-29T11:41:39.739Z,1456
2019-01-29T11:42:40.015Z,1324
2019-01-29T11:43:40.027Z,1216
2019-01-29T11:44:40.055Z,1096
2019-01-29T11:45:40.331Z,980
2019-01-29T11:46:39.825Z,888
2019-01-29T11:47:40.093Z,780
2019-01-29T11:48:39.853Z,692
2019-01-29T11:49:40.437Z,676
2019-01-29T11:50:40.149Z,656
2019-01-29T11:51:40.164Z,668
2019-01-29T11:52:39.919Z,664
2019-01-29T11:53:40.194Z,580
2019-01-29T11:54:40.260Z,568
2019-01-29T11:55:40.224Z,664
2019-01-29T11:56:40.250Z,692
2019-01-29T11:57:39.998Z,780
2019-01-29T11:58:40.273Z,852
2019-01-29T11:59:40.306Z,828
2019-01-29T12:00:40.315Z,748
2019-01-29T12:01:40.584Z,580
2019-01-29T12:02:40.347Z,452
2019-01-29T12:03:40.360Z,492
2019-01-29T12:04:40.631Z,588
2019-01-29T12:05:40.447Z,860
2019-01-29T12:06:40.405Z,1128
2019-01-29T12:07:40.423Z,1336
2019-01-29T12:08:40.707Z,1448
2019-01-29T12:09:40.510Z,1552
2019-01-29T12:10:40.474Z,1640
2019-01-29T12:11:40.230Z,1656
2019-01-29T12:12:40.246Z,1592
2019-01-29T12:13:40.528Z,1480
2019-01-29T12:14:40.804Z,1420
2019-01-29T12:15:40.818Z,1416
2019-01-29T12:16:40.585Z,1392
2019-01-29T12:17:40.330Z,1392
2019-01-29T12:18:40.604Z,1408
2019-01-29T12:19:40.883Z,1376
2019-01-29T12:20:40.900Z,1288
2019-01-29T12:21:40.655Z,1192
2019-01-29T12:22:40.732Z,1080
2019-01-29T12:23:40.941Z,948
2019-01-29T12:24:40.704Z,880
2019-01-29T12:25:40.981Z,852
2019-01-29T12:26:40.751Z,844
2019-01-29T12:27:40.757Z,868
2019-01-29T12:28:41.027Z,928
2019-01-29T12:29:40.835Z,1032
2019-01-29T12:30:40.803Z,1188
2019-01-29T12:31:40.566Z,1328
2019-01-29T12:32:40.837Z,1372
2019-01-29T12:33:41.373Z,1344
2019-01-29T12:34:41.174Z,1376
2019-01-29T12:35:40.887Z,1416
2019-01-29T12:36:40.905Z,1372
2019-01-29T12:37:41.176Z,1396
2019-01-29T12:38:41.194Z,1356
2019-01-29T12:39:40.949Z,1268
2019-01-29T12:40:42.034Z,1208
2019-01-29T12:41:40.996Z,1144
2019-01-29T12:42:40.743Z,1120
2019-01-29T12:43:41.017Z,1128
2019-01-29T12:44:41.034Z,1156
2019-01-29T12:45:41.308Z,1172
2019-01-29T12:46:41.068Z,1176
2019-01-29T12:47:40.874Z,1196
2019-01-29T12:48:41.098Z,1212
2019-01-29T12:49:41.170Z,1236
2019-01-29T12:50:41.391Z,1236
2019-01-29T12:51:40.896Z,1176
2019-01-29T12:52:41.169Z,1172
2019-01-29T12:53:41.184Z,1208
2019-01-29T12:54:41.093Z,1180
2019-01-29T12:55:41.017Z,1192
2019-01-29T12:56:41.509Z,1236
2019-01-29T12:57:41.506Z,1272
2019-01-29T12:58:41.525Z,1288
2019-01-29T12:59:41.022Z,1260
2019-01-29T13:00:41.560Z,1196
2019-01-29T13:01:41.319Z,1168
2019-01-29T13:02:41.588Z,1088
2019-01-29T13:03:41.348Z,1024
2019-01-29T13:04:41.105Z,1036
2019-01-29T13:05:41.125Z,1236
2019-01-29T13:06:41.137Z,1328
2019-01-29T13:07:41.414Z,1488
2019-01-29T13:08:41.694Z,1864
2019-01-29T13:09:41.493Z,1860
2019-01-29T13:10:41.472Z,1708
2019-01-29T13:11:41.478Z,1880
2019-01-29T13:12:43.296Z,1636
2019-01-29T13:13:42.026Z,1352
2019-01-29T13:14:41.786Z,1244
2019-01-29T13:15:41.544Z,1212
2019-01-29T13:16:41.826Z,1204
2019-01-29T13:17:41.583Z,1216
2019-01-29T13:18:41.858Z,1268
2019-01-29T13:19:41.609Z,1032
2019-01-29T13:20:41.882Z,992
2019-01-29T13:21:41.904Z,996
2019-01-29T13:22:41.402Z,1032
2019-01-29T13:23:41.935Z,1068
2019-01-29T13:24:41.948Z,1028
2019-01-29T13:25:41.709Z,976
2019-01-29T13:26:42.600Z,1080
2019-01-29T13:27:41.743Z,1032
2019-01-29T13:28:41.789Z,1116
2019-01-29T13:29:41.572Z,964
2019-01-29T13:30:42.050Z,948
2019-01-29T13:31:41.818Z,940
2019-01-29T13:32:42.097Z,944
2019-01-29T13:33:41.897Z,952
2019-01-29T13:34:41.649Z,1012
2019-01-29T13:35:41.618Z,1048
2019-01-29T13:36:41.631Z,1000
2019-01-29T13:37:41.654Z,1000
2019-01-29T13:38:41.923Z,1008
2019-01-29T13:39:41.938Z,1012
2019-01-29T13:40:41.954Z,996
2019-01-29T13:41:41.973Z,1020
2019-01-29T13:42:41.732Z,1028
2019-01-29T13:43:42.265Z,1064
2019-01-29T13:44:41.767Z,1108
2019-01-29T13:45:41.775Z,1168
2019-01-29T13:46:41.795Z,1160
2019-01-29T13:47:42.328Z,1100
2019-01-29T13:48:42.165Z,972
2019-01-29T13:49:42.413Z,880
2019-01-29T13:50:42.186Z,816
2019-01-29T13:51:41.875Z,748
2019-01-29T13:52:42.156Z,752
2019-01-29T13:53:42.428Z,792
2019-01-29T13:54:42.246Z,768
2019-01-29T13:55:42.204Z,684
2019-01-29T13:56:45.403Z,704
2019-01-29T13:57:42.246Z,716
2019-01-29T13:58:41.999Z,656
2019-01-29T13:59:42.286Z,544
2019-01-29T14:00:42.554Z,456
2019-01-29T14:01:42.817Z,440
2019-01-29T14:02:42.058Z,576
2019-01-29T14:03:42.597Z,536
2019-01-29T14:04:42.353Z,436
2019-01-29T14:05:42.378Z,276
2019-01-29T14:06:42.639Z,184
2019-01-29T14:07:42.405Z,156
2019-01-29T14:08:42.679Z,224
2019-01-29T14:09:42.179Z,244